Latest Weather Observations for Adelaide

IDS60901

Issued at 7:01 pm CDT Saturday 21 January 2017 (issued every 10 minutes, with the page automatically refreshed every 10 minutes)

About weather observations | Map of Adelaide area stations | Latest observations for Adelaide area | Other Formats
Station Details ID: 023090 Name: KENT TOWN Lat: -34.92 Lon: 138.62 Height: 48.0 m
Data from the previous 72 hours. | See also: Recent months at Adelaide
Date/Time
CDT
Temp
°C
App
Temp
°C
Dew
Point
°C
Rel
Hum
%
Delta-T
°C
Wind Press
QNH
hPa
Press
MSL
hPa
Rain since
9am
mm
Dir  Spd
km/h
Gust
km/h
Spd
kts
Gust
kts
21/07:00pm 25.8 23.9 12.9 44 7.5 SW 15 24 8 13 1012.7 1012.5 0.0
21/06:30pm 25.9 23.4 12.4 43 7.8 WSW 17 24 9 13 1012.6 1012.4 0.0
21/06:00pm 26.0 23.7 11.9 41 8.1 SW 15 24 8 13 1012.6 1012.4 0.0
21/05:30pm 26.1 23.4 11.6 40 8.3 WSW 17 28 9 15 1012.9 1012.7 0.0
21/05:00pm 26.1 23.7 11.3 39 8.4 SW 15 28 8 15 1013.0 1012.8 0.0
21/04:30pm 26.0 23.3 11.6 40 8.2 SW 17 24 9 13 1013.3 1013.1 0.0
21/04:00pm 25.9 23.5 11.5 40 8.2 SW 15 20 8 11 1013.6 1013.4 0.0
21/03:30pm 25.6 23.4 12.0 42 7.8 SW 15 26 8 14 1013.7 1013.5 0.0
21/03:00pm 25.5 23.2 11.6 41 7.9 SW 15 22 8 12 1014.0 1013.8 0.0
21/02:30pm 25.0 22.7 11.6 43 7.6 SW 15 20 8 11 1014.3 1014.1 0.0
21/02:00pm 25.1 22.2 11.1 41 7.9 WSW 17 24 9 13 1014.4 1014.2 0.0
21/01:30pm 25.6 23.8 9.4 36 8.9 WNW 9 17 5 9 1014.3 1014.1 0.0
21/01:00pm 25.0 23.9 10.7 40 8.0 NW 7 13 4 7 1014.7 1014.5 0.0
21/12:30pm 23.8 22.2 8.9 38 8.0 NNE 7 20 4 11 1014.9 1014.7 0.0
21/12:00pm 23.5 21.3 8.0 37 8.2 NE 9 13 5 7 1015.1 1014.9 0.0
21/11:30am 22.3 20.5 8.0 40 7.5 N 7 17 4 9 1015.2 1015.0 0.0
21/11:00am 22.0 20.5 8.6 42 7.1 SSW 6 11 3 6 1015.4 1015.2 0.0
21/10:30am 20.7 19.0 7.7 43 6.7 NE 6 11 3 6 1015.9 1015.7 0.0
21/10:00am 20.4 19.0 8.8 47 6.1 S 6 11 3 6 1016.0 1015.8 0.0
21/09:30am 19.3 17.9 9.7 53 5.1 S 7 13 4 7 1016.2 1016.0 0.0
21/09:00am 18.3 17.8 10.7 61 4.1 W 4 7 2 4 1016.2 1016.0 0.0
21/08:30am 17.5 16.6 10.6 64 3.7 W 6 9 3 5 1016.1 1015.9 0.0
21/08:00am 16.7 15.8 10.5 67 3.3 N 6 7 3 4 1015.5 1015.3 0.0
21/07:30am 14.8 15.1 10.8 77 2.1 CALM 0 0 0 0 1015.1 1014.9 0.0
21/07:00am 13.4 13.6 10.7 84 1.4 CALM 0 0 0 0 1014.9 1014.7 0.0
21/06:30am 13.4 13.6 10.7 84 1.4 CALM 0 0 0 0 1014.7 1014.5 0.0
21/06:00am 13.8 14.1 10.8 82 1.6 CALM 0 7 0 4 1014.3 1014.1 0.0
21/05:30am 13.9 14.1 10.7 81 1.7 CALM 0 0 0 0 1014.2 1014.0 0.0
21/05:00am 14.4 14.6 10.4 77 2.1 CALM 0 0 0 0 1014.2 1014.0 0.0
21/04:30am 14.5 13.5 10.3 76 2.2 S 6 9 3 5 1013.9 1013.7 0.0
21/04:00am 14.7 13.8 10.5 76 2.2 SSW 6 9 3 5 1013.8 1013.6 0.0
21/03:30am 15.3 14.0 9.9 70 2.8 S 7 13 4 7 1013.6 1013.4 0.0
21/03:00am 15.2 14.1 9.8 70 2.8 SSW 6 13 3 7 1013.6 1013.4 0.0
21/02:30am 15.3 14.1 9.7 69 2.9 S 6 11 3 6 1013.6 1013.4 0.0
21/02:00am 15.6 14.3 9.9 69 3.0 SSW 7 13 4 7 1013.7 1013.5 0.0
21/01:30am 15.7 14.4 10.0 69 3.0 S 7 13 4 7 1013.7 1013.5 0.0
21/01:00am 15.8 14.1 9.7 67 3.2 SSW 9 19 5 10 1013.8 1013.6 0.0
21/12:30am 15.5 14.3 10.4 71 2.7 SSW 7 11 4 6 1013.7 1013.5 0.0
21/12:00am 15.7 14.2 10.4 71 2.8 SSW 9 15 5 8 1013.6 1013.4 0.0
 
Date/Time
CDT
Temp
°C
App
Temp
°C
Dew
Point
°C
Rel
Hum
%
Delta-T
°C
Wind Press
QNH
hPa
Press
MSL
hPa
Rain since
9am
mm
Dir  Spd
km/h
Gust
km/h
Spd
kts
Gust
kts
20/11:30pm 15.8 14.7 10.5 71 2.8 SSW 7 11 4 6 1013.2 1013.0 0.0
20/11:00pm 16.0 14.1 10.5 70 2.9 S 11 20 6 11 1013.0 1012.8 0.0
20/10:30pm 16.2 14.7 10.6 69 3.0 SSW 9 17 5 9 1012.7 1012.5 0.0
20/10:00pm 16.5 15.4 10.7 68 3.1 S 7 13 4 7 1012.5 1012.3 0.0
20/09:30pm 16.9 15.3 10.3 65 3.5 S 9 15 5 8 1012.0 1011.8 0.0
20/09:00pm 17.4 15.9 10.7 65 3.6 S 9 19 5 10 1011.6 1011.4 0.0
20/08:30pm 18.1 15.6 9.8 58 4.4 SSE 13 20 7 11 1011.1 1010.9 0.0
20/08:00pm 19.0 15.7 9.6 54 5.0 SSE 17 26 9 14 1010.6 1010.4 0.0
20/07:30pm 20.6 18.6 10.3 51 5.6 S 11 17 6 9 1010.1 1009.9 0.0
20/07:00pm 20.9 18.0 9.8 49 6.0 SE 15 22 8 12 1009.7 1009.5 0.0
20/06:30pm 21.6 18.7 9.8 47 6.4 SSE 15 32 8 17 1009.6 1009.4 0.0
20/06:00pm 22.1 19.2 9.8 45 6.7 S 15 24 8 13 1009.3 1009.1 0.0
20/05:30pm 22.7 18.8 9.4 42 7.2 SSW 20 35 11 19 1009.2 1009.0 0.0
20/05:00pm 23.4 19.8 9.7 41 7.5 SSW 19 30 10 16 1009.1 1008.9 0.0
20/04:30pm 23.2 19.4 9.9 43 7.3 SSW 20 32 11 17 1008.9 1008.7 0.0
20/04:00pm 24.1 21.6 11.1 44 7.3 S 15 26 8 14 1008.6 1008.4 0.0
20/03:30pm 23.7 21.2 11.2 45 7.0 SSE 15 28 8 15 1008.6 1008.4 0.0
20/03:00pm 23.3 21.0 11.6 47 6.6 SSE 15 26 8 14 1008.6 1008.4 0.0
20/02:30pm 23.3 21.2 11.2 46 6.8 SSW 13 24 7 13 1008.5 1008.3 0.0
20/02:00pm 22.3 20.3 11.4 50 6.1 S 13 26 7 14 1008.4 1008.2 0.0
20/01:30pm 21.9 19.0 11.1 50 6.0 S 17 30 9 16 1008.4 1008.2 0.0
20/01:00pm 22.3 20.1 12.1 52 5.8 S 15 24 8 13 1008.2 1008.0 0.0
20/12:30pm 20.6 18.2 11.4 55 5.1 SSW 15 30 8 16 1008.2 1008.0 0.0
20/12:00pm 20.0 17.6 11.5 58 4.7 S 15 26 8 14 1008.2 1008.0 0.0
20/11:30am 19.7 17.1 12.0 61 4.3 S 17 28 9 15 1008.0 1007.8 0.0
20/11:00am 19.6 17.7 11.9 61 4.3 S 13 28 7 15 1007.4 1007.2 0.0
20/10:30am 18.9 16.9 12.7 67 3.5 S 15 32 8 17 1006.9 1006.7 0.0
20/10:00am 18.9 16.1 12.7 67 3.5 SSW 19 28 10 15 1006.5 1006.3 0.0
20/09:30am 18.6 16.3 13.1 70 3.1 SSW 17 35 9 19 1005.9 1005.7 0.0
20/09:00am 18.4 16.3 13.7 74 2.7 S 17 28 9 15 1005.4 1005.2 21.0
20/08:30am 18.4 16.5 14.1 76 2.5 SSW 17 30 9 16 1005.0 1004.8 21.0
20/08:00am 18.4 17.3 15.2 81 1.9 SW 15 24 8 13 1004.3 1004.0 21.0
20/07:30am 18.3 16.9 15.6 84 1.6 SSW 17 26 9 14 1003.5 1003.2 21.0
20/07:00am 18.4 17.7 16.4 88 1.2 SW 15 32 8 17 1002.7 1002.4 21.0
20/06:30am 18.4 17.4 16.7 90 1.0 SW 17 33 9 18 1002.3 1002.0 21.0
20/06:00am 18.7 17.8 16.9 89 1.1 SW 17 33 9 18 1002.0 1001.7 21.0
20/05:30am 18.9 17.4 17.6 92 0.8 SW 22 44 12 24 1001.4 1001.1 21.0
20/05:00am 19.9 19.3 18.5 92 0.9 WSW 19 37 10 20 1000.8 1000.5 20.8
20/04:30am 20.9 21.7 19.8 93 0.7 WSW 15 26 8 14 1000.2 999.9 20.8
20/04:00am 20.9 24.6 20.0 95 0.6 CALM 0 9 0 5 999.5 999.3 20.8
20/03:30am 20.8 24.5 20.0 95 0.5 CALM 0 0 0 0 999.1 998.9 20.8
20/03:00am 20.6 24.2 19.7 95 0.6 CALM 0 0 0 0 998.8 998.6 20.8
20/02:30am 20.4 23.5 19.6 95 0.5 NNW 2 7 1 4 998.4 998.2 20.8
20/02:00am 19.8 22.0 19.2 96 0.4 ENE 6 9 3 5 998.3 998.1 20.8
20/01:30am 19.1 20.6 18.1 94 0.6 ESE 7 15 4 8 999.5 999.3 17.6
20/01:00am 21.0 23.6 20.5 97 0.3 S 7 19 4 10 1000.0 999.7 8.8
20/12:30am 20.8 22.5 20.2 96 0.4 SW 11 17 6 9 999.9 999.6 5.8
20/12:00am 21.1 22.0 20.0 93 0.7 WSW 15 24 8 13 1000.0 999.7 5.0
 
Date/Time
CDT
Temp
°C
App
Temp
°C
Dew
Point
°C
Rel
Hum
%
Delta-T
°C
Wind Press
QNH
hPa
Press
MSL
hPa
Rain since
9am
mm
Dir  Spd
km/h
Gust
km/h
Spd
kts
Gust
kts
19/11:30pm 24.3 27.9 23.1 93 0.8 WNW 9 15 5 8 999.8 999.5 4.8
19/11:00pm 25.0 29.4 23.8 93 0.8 NW 7 11 4 6 1000.1 999.8 4.8
19/10:30pm 25.1 29.5 23.8 92 0.9 N 7 13 4 7 1000.1 999.8 4.0
19/10:00pm 24.7 28.7 23.7 94 0.7 NNE 9 19 5 10 1000.9 1000.6 4.0
19/09:30pm 24.4 27.4 23.4 94 0.7 NNE 13 20 7 11 1000.4 1000.1 4.0
19/09:00pm 24.6 26.3 23.4 93 0.8 N 20 33 11 18 1001.5 1001.2 2.0
19/08:48pm 25.0 25.0 23.8 93 0.8 NNW 30 52 16 28 1001.4 1001.1 1.4
19/08:35pm 27.3 26.7 23.7 81 2.5 NW 33 74 18 40 1000.4 1000.1 0.0
19/08:31pm 32.9 32.0 18.3 42 9.5 NNW 20 59 11 32 999.7 999.4 0.0
19/08:30pm 34.9 32.8 13.5 27 13.1 N 17 50 9 27 998.8 998.6 0.0
19/08:00pm 35.6 33.5 12.5 24 13.9 NNE 15 26 8 14 996.6 996.4 0.0
19/07:30pm 35.9 35.1 12.8 25 14.1 ENE 9 19 5 10 996.9 996.7 0.0
19/07:00pm 36.5 35.2 12.5 23 14.5 ENE 11 20 6 11 997.3 997.1 0.0
19/06:30pm 37.3 35.8 13.1 23 14.9 ENE 13 24 7 13 997.6 997.4 0.0
19/06:00pm 38.1 37.0 14.4 24 14.9 N 13 22 7 12 997.9 997.7 0.0
19/05:30pm 37.3 37.4 14.5 25 14.3 NNE 7 15 4 8 998.1 997.9 0.0
19/05:00pm 37.9 38.0 15.4 26 14.2 N 9 15 5 8 999.2 999.0 0.0
19/04:30pm 36.9 36.5 14.1 25 14.2 NNE 9 17 5 9 1000.2 999.9 0.0
19/04:00pm 36.7 34.8 11.8 22 14.9 N 13 24 7 13 1001.2 1000.9 0.0
19/03:30pm 36.5 34.6 11.9 22 14.8 NNE 13 28 7 15 1002.2 1001.9 0.0
19/03:00pm 36.5 35.3 12.7 24 14.5 NNE 11 20 6 11 1003.1 1002.8 0.0
19/02:30pm 35.7 33.7 11.6 23 14.4 NNE 13 20 7 11 1003.7 1003.4 0.0
19/02:00pm 34.6 33.5 12.0 25 13.5 NE 9 15 5 8 1004.7 1004.5 0.0
19/01:30pm 33.4 32.1 11.1 25 13.1 ENE 9 19 5 10 1005.5 1005.3 0.0
19/01:00pm 31.8 30.1 9.7 25 12.6 ENE 9 17 5 9 1006.3 1006.1 0.0
19/12:30pm 31.1 29.1 10.1 27 12.0 NE 11 19 6 10 1006.9 1006.7 0.0
19/12:00pm 30.0 28.6 10.9 30 11.0 NE 9 17 5 9 1007.5 1007.3 0.0
19/11:30am 29.0 26.5 9.8 30 10.8 NNE 13 22 7 12 1007.8 1007.6 0.0
19/11:00am 28.5 26.9 10.1 31 10.4 NE 9 17 5 9 1008.3 1008.1 0.0
19/10:30am 27.3 24.6 8.9 31 10.1 NNE 13 28 7 15 1008.9 1008.7 0.0
19/10:00am 27.6 25.7 9.2 31 10.2 ENE 9 17 5 9 1008.9 1008.7 0.0
19/09:30am 25.4 23.6 9.4 36 8.8 ENE 9 15 5 8 1009.1 1008.9 0.0
19/09:00am 23.9 22.6 9.1 39 8.0 ENE 6 11 3 6 1009.3 1009.1 0.0
19/08:30am 23.0 21.4 8.6 39 7.7 E 7 11 4 6 1009.5 1009.3 0.0
19/08:00am 22.6 20.4 8.0 39 7.7 ENE 9 17 5 9 1009.8 1009.6 0.0
19/07:30am 21.9 19.7 7.7 40 7.4 E 9 13 5 7 1009.8 1009.6 0.0
19/07:00am 21.1 18.5 7.6 41 7.0 ENE 11 20 6 11 1009.8 1009.6 0.0
19/06:30am 20.2 18.4 8.1 45 6.3 ENE 7 13 4 7 1009.7 1009.5 0.0
19/06:00am 20.1 18.2 7.7 44 6.4 NE 7 11 4 6 1009.8 1009.6 0.0
19/05:30am 19.3 18.9 9.7 53 5.1 SSW 2 7 1 4 1009.8 1009.6 0.0
19/05:00am 19.1 19.3 10.4 57 4.7 CALM 0 0 0 0 1009.7 1009.5 0.0
19/04:30am 19.3 19.1 10.6 57 4.7 W 2 7 1 4 1009.9 1009.7 0.0
19/04:00am 19.5 19.1 11.1 58 4.6 W 4 9 2 5 1009.9 1009.7 0.0
19/03:30am 20.1 19.8 10.1 52 5.4 WNW 2 7 1 4 1010.1 1009.9 0.0
19/03:00am 19.9 19.3 10.3 54 5.2 W 4 7 2 4 1010.9 1010.7 0.0
19/02:30am 20.1 19.4 10.1 52 5.4 S 4 11 2 6 1011.2 1011.0 0.0
19/02:00am 20.8 19.4 8.9 46 6.3 N 6 11 3 6 1011.6 1011.4 0.0
19/01:30am 20.1 19.3 11.2 56 4.9 WSW 6 7 3 4 1012.0 1011.8 0.0
19/01:00am 19.4 18.9 10.8 57 4.7 ESE 4 7 2 4 1012.3 1012.1 0.0
19/12:30am 19.3 18.2 10.8 58 4.6 SE 7 9 4 5 1012.8 1012.6 0.0
19/12:00am 19.4 18.6 11.0 58 4.6 SE 6 11 3 6 1013.0 1012.8 0.0
 
Date/Time
CDT
Temp
°C
App
Temp
°C
Dew
Point
°C
Rel
Hum
%
Delta-T
°C
Wind Press
QNH
hPa
Press
MSL
hPa
Rain since
9am
mm
Dir  Spd
km/h
Gust
km/h
Spd
kts
Gust
kts
18/11:30pm 19.2 19.6 11.2 60 4.4 CALM 0 7 0 4 1013.3 1013.1 0.0
18/11:00pm 19.1 17.6 10.6 58 4.6 ESE 9 17 5 9 1013.4 1013.2 0.0
18/10:30pm 19.4 18.0 11.0 58 4.6 SE 9 15 5 8 1013.6 1013.4 0.0
18/10:00pm 19.9 19.0 11.4 58 4.7 SE 7 13 4 7 1013.4 1013.2 0.0
18/09:30pm 20.2 19.2 10.9 55 5.1 ESE 7 15 4 8 1013.4 1013.2 0.0
18/09:00pm 20.7 19.2 10.6 52 5.5 SSE 9 19 5 10 1013.3 1013.1 0.0
18/08:30pm 21.2 20.4 11.1 52 5.6 ESE 6 11 3 6 1013.3 1013.1 0.0
18/08:00pm 21.9 20.8 10.8 49 6.1 SE 7 17 4 9 1013.0 1012.8 0.0
18/07:30pm 22.7 21.3 10.8 47 6.6 SE 9 17 5 9 1012.8 1012.6 0.0

Latest Capital City Observations: Canberra | Sydney | Melbourne | Brisbane | Adelaide | Perth | Hobart | Darwin

Other Formats:

Comma delimited format used in spreadsheet applications
http://www.bom.gov.au/fwo/IDS60901/IDS60901.94675.axf

JavaScript Object Notation format (JSON) in row-major order
http://www.bom.gov.au/fwo/IDS60901/IDS60901.94675.json